Overview Statistics Trail Chart Weather Telemetry Raw packets
 

This is the latest recevied weather packets stored in our database for station/object CT4TX-11. If no packets are shown the sender has not sent any weather packets the latest 10 day(s).

<< 16 17 18 19 20 21 22 >>
Time Temp. Humidity Pressure Rain* Wind** Luminosity Snow
1788231069 29.44° C 44% 1006.7 hPa - - - -
1788230169 29.44° C 44% 1006.9 hPa - - - -
1788229269 28.89° C 44% 1006.9 hPa - - - -
1788228369 29.44° C 43% 1006.9 hPa - - - -
1788227468 29.44° C 44% 1007 hPa - - - -
1788226568 29.44° C 44% 1007 hPa - - - -
1788225668 29.44° C 43% 1007.2 hPa - - - -
1788224768 29.44° C 44% 1007.4 hPa - - - -
1788223868 29.44° C 44% 1007.4 hPa - - - -
1788222967 29.44° C 44% 1007.4 hPa - - - -
1788222067 29.44° C 44% 1007.4 hPa - - - -
1788221167 29.44° C 44% 1007.6 hPa - - - -
1788220267 29.44° C 44% 1007.7 hPa - - - -
1788219367 28.89° C 46% 1007.7 hPa - - - -
1788218466 29.44° C 46% 1007.7 hPa - - - -
1788217566 29.44° C 45% 1007.8 hPa - - - -
1788216666 29.44° C 42% 1008 hPa - - - -
1788215766 31.11° C 40% 1008.2 hPa - - - -
1788214865 30.56° C 40% 1008.2 hPa - - - -
1788213965 30° C 42% 1008.1 hPa - - - -
1788213071 30° C 41% 1008.3 hPa - - - -
1788212171 28.33° C 43% 1008.3 hPa - - - -
1788211271 28.33° C 43% 1008.4 hPa - - - -
1788210386 28.89° C 44% 1008.4 hPa - - - -
1788209470 28.89° C 44% 1008.4 hPa - - - -

* Rain since midnight (hover to see other rain measurements)
** Current wind speed in m/s (hover to see current wind gust speed)